Air Resources Laboratory banner image
Air Resources Laboratory web site National Oceanic and Atmospheric Administration (NOAA)

me metar


K8B0 261555Z AUTO 30007KT 10SM SCT014 OVC021 17/13 A2981 RMK AO2=
KAUG 261553Z AUTO VRB03KT 10SM -RA OVC100 19/17 A2975 RMK AO2 RAB03 SLP073
 P0002 T01940172=
KBGR 261553Z 30005KT 10SM FEW030 OVC080 23/17 A2972 RMK AO2 SLP059 T02280172=
KBHB 261556Z AUTO 26006KT 10SM OVC090 22/17 A2971 RMK AO2 SLP064 T02220167 $=
KCAR 261554Z AUTO 31011KT 10SM CLR 17/04 A2975 RMK AO2 SLP078 T01720039=
KFVE 261553Z AUTO 31015KT 10SM CLR 16/01 A2978 RMK AO2 PK WND 01026/1540 SLP081
 T01610011=
KGNR 261556Z AUTO 33012G16KT 19/14 A2974 RMK AO1 SLP067 T01890139=
KHUL 261553Z AUTO 36014G19KT 10SM CLR 18/09 A2974 RMK AO2 SLP070 T01780089=
KIWI 261553Z AUTO 00000KT 7SM -RA BKN100 OVC110 19/19 A2977 RMK AO2 RAB08
 SLP079 P0002 T01940189=
KIZG 261554Z AUTO 24004KT 10SM OVC090 22/17 A2976 RMK AO2 SLP076 T02220172=
KLEW 261556Z AUTO 00000KT 10SM BKN100 21/16 A2977 RMK AO2 SLP092 T02060161=
KMLT 261553Z AUTO 02008KT 10SM BKN038 BKN046 21/08 A2975 RMK AO2 SLP077
 T02060083=
KPQI 261556Z AUTO 32012KT 10SM CLR 17/03 A2977 RMK AO2 SLP121 T01720028=
KPWM 261551Z 00000KT 10SM SCT080 OVC100 22/17 A2974 RMK AO2 SLP071 T02170167=
KRKD 261556Z AUTO 27008KT 10SM -RA SCT035 SCT048 BKN110 19/18 A2974 RMK AO2
 SLP072 P0000 T01940178=
KSFM 261556Z AUTO 28008KT 10SM CLR 26/14 A2976 RMK AO2 SLP077 T02560139=
KWVL 261556Z AUTO 25004KT 10SM FEW055 21/17 A2973 RMK AO2 RAE1458 SLP090 P0000
 T02060172 $=